Time;durP1;ratioP1;P1;durP2;ratioP2;P2;SDS_P1;SDS_P2;PMS_P1;PMS_P2;Temp;Humidity;BMP_temperature;BMP_pressure;BME280_temperature;BME280_humidity;BME280_pressure;Samples;Min_cycle;Max_cycle;Signal;HPM_P1;HPM_P2
2023/07/12 03:46:14;;;;;;;12.50;6.65;;;;;;;;;;6150586;23;20028;-67
2023/07/12 03:48:40;;;;;;;20.33;6.85;;;;;;;;;;6150121;23;20013;-67
2023/07/12 03:51:06;;;;;;;20.83;7.40;;;;;;;;;;6150049;23;20435;-67
2023/07/12 03:53:32;;;;;;;19.45;8.10;;;;;;;;;;6149835;23;20014;-66
2023/07/12 03:56:03;;;;;;;28.45;8.10;;;;;;;;;;6150323;23;20009;-67
2023/07/12 03:58:34;;;;;;;19.48;8.10;;;;;;;;;;6150403;23;20331;-67
2023/07/12 04:01:06;;;;;;;21.55;7.25;;;;;;;;;;6150487;22;20013;-67
2023/07/12 04:03:33;;;;;;;17.23;7.63;;;;;;;;;;6124166;23;20066;-67
2023/07/12 04:05:58;;;;;;;21.80;8.13;;;;;;;;;;6150454;23;20010;-67
2023/07/12 04:08:24;;;;;;;20.35;7.25;;;;;;;;;;6149948;22;20442;-69
2023/07/12 04:10:52;;;;;;;20.85;7.13;;;;;;;;;;6149718;23;20135;-67
2023/07/12 04:13:17;;;;;;;23.48;7.40;;;;;;;;;;6149720;22;20013;-67
2023/07/12 04:15:43;;;;;;;19.77;7.00;;;;;;;;;;6150061;22;20016;-67
2023/07/12 04:18:09;;;;;;;24.92;7.75;;;;;;;;;;6150045;22;20063;-67
2023/07/12 04:20:38;;;;;;;19.50;6.80;;;;;;;;;;6149307;23;20439;-67
2023/07/12 04:23:04;;;;;;;18.77;6.47;;;;;;;;;;6150398;23;20006;-67
2023/07/12 04:25:29;;;;;;;24.40;8.00;;;;;;;;;;6149545;23;20058;-67
2023/07/12 04:27:55;;;;;;;19.67;7.72;;;;;;;;;;6150434;22;20088;-67
2023/07/12 04:30:21;;;;;;;12.63;6.65;;;;;;;;;;6150125;22;20001;-67
2023/07/12 04:32:47;;;;;;;18.20;7.55;;;;;;;;;;6149986;23;20020;-68
2023/07/12 04:35:14;;;;;;;19.75;7.05;;;;;;;;;;6150110;23;20381;-68
2023/07/12 04:37:47;;;;;;;18.38;6.43;;;;;;;;;;6149533;23;20427;-67
2023/07/12 04:40:13;;;;;;;14.55;6.45;;;;;;;;;;6149550;23;20090;-67
2023/07/12 04:42:40;;;;;;;15.85;6.70;;;;;;;;;;6149219;23;20039;-68
2023/07/12 04:45:08;;;;;;;9.27;5.65;;;;;;;;;;6148190;22;20021;-68
2023/07/12 04:47:36;;;;;;;18.77;6.13;;;;;;;;;;6148080;22;20393;-68
2023/07/12 04:50:03;;;;;;;10.30;5.82;;;;;;;;;;6149392;23;20342;-67
2023/07/12 04:52:29;;;;;;;18.75;7.40;;;;;;;;;;6147915;23;20005;-68
2023/07/12 04:54:58;;;;;;;15.38;6.78;;;;;;;;;;6149810;22;20021;-67
2023/07/12 04:57:25;;;;;;;16.20;7.00;;;;;;;;;;6149570;22;20379;-67
2023/07/12 04:59:51;;;;;;;25.35;10.55;;;;;;;;;;6149870;23;20063;-67
2023/07/12 05:02:17;;;;;;;16.35;9.48;;;;;;;;;;6149475;23;20343;-67
2023/07/12 05:04:43;;;;;;;11.88;6.55;;;;;;;;;;6147821;23;20086;-68
2023/07/12 05:07:10;;;;;;;21.98;7.18;;;;;;;;;;6148975;23;20399;-67
2023/07/12 05:09:36;;;;;;;14.82;6.43;;;;;;;;;;6149343;23;20018;-69
2023/07/12 05:12:03;;;;;;;21.23;7.25;;;;;;;;;;6149183;23;20001;-68
2023/07/12 05:14:29;;;;;;;11.43;6.65;;;;;;;;;;6149122;23;20013;-67
2023/07/12 05:16:55;;;;;;;14.30;6.22;;;;;;;;;;6148885;22;20524;-69
2023/07/12 05:19:21;;;;;;;14.90;6.75;;;;;;;;;;6149152;23;20021;-69
2023/07/12 05:21:47;;;;;;;20.38;6.93;;;;;;;;;;6149686;22;20009;-68
2023/07/12 05:24:13;;;;;;;11.15;6.00;;;;;;;;;;6149394;22;20084;-68
2023/07/12 05:26:38;;;;;;;13.60;6.20;;;;;;;;;;6147928;22;20055;-67
2023/07/12 05:29:04;;;;;;;13.02;6.25;;;;;;;;;;6149216;23;20092;-68
2023/07/12 05:31:30;;;;;;;12.80;5.60;;;;;;;;;;6149318;23;20029;-68
2023/07/12 05:33:55;;;;;;;10.57;5.38;;;;;;;;;;6150189;23;20033;-67
2023/07/12 05:36:21;;;;;;;12.48;5.80;;;;;;;;;;6149223;22;20382;-68
2023/07/12 05:38:47;;;;;;;10.70;5.65;;;;;;;;;;6150956;23;20009;-69
2023/07/12 05:41:13;;;;;;;12.32;5.85;;;;;;;;;;6150503;23;20074;-68
2023/07/12 05:43:40;;;;;;;11.20;5.53;;;;;;;;;;6150331;23;20380;-67
2023/07/12 05:46:06;;;;;;;13.55;5.95;;;;;;;;;;6149661;22;20009;-68
2023/07/12 05:48:32;;;;;;;13.65;6.20;;;;;;;;;;6150074;22;20016;-67
2023/07/12 05:51:00;;;;;;;13.55;5.80;;;;;;;;;;6150370;22;20001;-67
2023/07/12 05:53:26;;;;;;;11.60;5.90;;;;;;;;;;6149255;22;20010;-67
2023/07/12 05:56:00;;;;;;;11.80;6.40;;;;;;;;;;6150066;22;19997;-67
2023/07/12 05:58:27;;;;;;;12.57;5.65;;;;;;;;;;6148585;23;20020;-67
2023/07/12 06:01:00;;;;;;;12.63;6.20;;;;;;;;;;6149773;23;20029;-67
2023/07/12 06:03:27;;;;;;;16.98;6.05;;;;;;;;;;6123536;22;20018;-67
2023/07/12 06:05:53;;;;;;;11.60;5.75;;;;;;;;;;6149934;22;20001;-67
2023/07/12 06:08:20;;;;;;;8.95;5.40;;;;;;;;;;6149419;23;20081;-67
2023/07/12 06:10:46;;;;;;;15.98;5.80;;;;;;;;;;6150130;22;20002;-66
2023/07/12 06:13:12;;;;;;;14.20;5.38;;;;;;;;;;6149915;22;20032;-68
2023/07/12 06:15:38;;;;;;;13.77;6.10;;;;;;;;;;6123798;22;20001;-65
2023/07/12 06:18:03;;;;;;;15.00;5.95;;;;;;;;;;6149681;22;20458;-67
2023/07/12 06:20:29;;;;;;;16.60;6.45;;;;;;;;;;6148568;23;20002;-67
2023/07/12 06:22:55;;;;;;;17.05;5.68;;;;;;;;;;6150114;22;20459;-67
2023/07/12 06:25:21;;;;;;;19.05;6.03;;;;;;;;;;6149805;23;20459;-68
2023/07/12 06:27:46;;;;;;;17.25;6.07;;;;;;;;;;6149838;23;20010;-68
2023/07/12 06:30:15;;;;;;;14.45;5.72;;;;;;;;;;6150276;22;20024;-70
2023/07/12 06:32:41;;;;;;;12.90;5.80;;;;;;;;;;6150255;22;20029;-68
2023/07/12 06:35:07;;;;;;;15.07;5.93;;;;;;;;;;6150179;22;20025;-68
2023/07/12 06:37:33;;;;;;;18.20;5.80;;;;;;;;;;6149803;22;20017;-67
2023/07/12 06:39:59;;;;;;;19.70;5.40;;;;;;;;;;6150330;22;20043;-68
2023/07/12 06:42:25;;;;;;;14.68;5.82;;;;;;;;;;6149671;22;20519;-69
2023/07/12 06:44:51;;;;;;;22.08;6.63;;;;;;;;;;6149151;22;20052;-69
2023/07/12 06:47:17;;;;;;;16.48;6.00;;;;;;;;;;6149244;23;20010;-68
2023/07/12 06:49:43;;;;;;;13.13;5.47;;;;;;;;;;6150876;22;20012;-69
2023/07/12 06:52:12;;;;;;;12.30;5.15;;;;;;;;;;6150042;22;20360;-68
2023/07/12 06:54:38;;;;;;;11.23;4.93;;;;;;;;;;6150166;23;20062;-68
2023/07/12 06:57:04;;;;;;;8.77;4.32;;;;;;;;;;6149879;22;20077;-68
2023/07/12 06:59:30;;;;;;;11.30;5.05;;;;;;;;;;6149439;22;20041;-67
2023/07/12 07:01:56;;;;;;;9.07;4.90;;;;;;;;;;6150207;23;20370;-68
2023/07/12 07:04:21;;;;;;;10.65;4.75;;;;;;;;;;6149902;22;20138;-68
2023/07/12 07:06:47;;;;;;;12.20;4.75;;;;;;;;;;6149927;23;20001;-68
2023/07/12 07:09:13;;;;;;;11.27;4.63;;;;;;;;;;6149902;22;20020;-67
2023/07/12 07:11:39;;;;;;;10.60;5.15;;;;;;;;;;6149878;22;20040;-68
2023/07/12 07:14:05;;;;;;;16.25;4.63;;;;;;;;;;6149694;22;20014;-67
2023/07/12 07:16:31;;;;;;;12.32;4.97;;;;;;;;;;6149884;23;20002;-68
2023/07/12 07:18:57;;;;;;;13.30;5.05;;;;;;;;;;6149975;22;20446;-68
2023/07/12 07:21:23;;;;;;;10.18;4.75;;;;;;;;;;6149591;22;20397;-67
2023/07/12 07:23:48;;;;;;;11.88;4.65;;;;;;;;;;6149424;23;20385;-68
2023/07/12 07:26:18;;;;;;;11.88;4.97;;;;;;;;;;6149429;23;20005;-67
2023/07/12 07:28:44;;;;;;;13.57;4.47;;;;;;;;;;6147024;23;20017;-69
2023/07/12 07:31:10;;;;;;;7.95;4.43;;;;;;;;;;6149665;22;20009;-67
2023/07/12 07:33:38;;;;;;;10.45;4.75;;;;;;;;;;6149346;22;20021;-69
2023/07/12 07:36:08;;;;;;;9.05;4.40;;;;;;;;;;6149374;22;20073;-68
2023/07/12 07:38:36;;;;;;;15.05;4.70;;;;;;;;;;6149657;22;20136;-68
2023/07/12 07:41:11;;;;;;;8.02;5.15;;;;;;;;;;6150142;22;20012;-69
2023/07/12 07:43:39;;;;;;;14.23;5.00;;;;;;;;;;6148307;23;20346;-69
2023/07/12 07:46:08;;;;;;;16.17;5.60;;;;;;;;;;6149696;22;20446;-68
2023/07/12 07:48:34;;;;;;;11.65;4.97;;;;;;;;;;6149606;22;20076;-68
2023/07/12 07:51:00;;;;;;;11.35;4.60;;;;;;;;;;6148054;22;20395;-69
2023/07/12 07:53:26;;;;;;;13.73;5.47;;;;;;;;;;6148889;22;20075;-69
2023/07/12 07:55:52;;;;;;;13.48;4.78;;;;;;;;;;6146945;22;20033;-67
2023/07/12 07:58:18;;;;;;;11.85;5.18;;;;;;;;;;6149769;22;20115;-66
2023/07/12 08:00:44;;;;;;;9.40;4.22;;;;;;;;;;6149535;23;20034;-68
2023/07/12 08:03:11;;;;;;;6.28;4.40;;;;;;;;;;6148379;22;20009;-66
2023/07/12 08:05:38;;;;;;;8.18;4.32;;;;;;;;;;6148798;23;20016;-68
2023/07/12 08:08:05;;;;;;;8.48;5.03;;;;;;;;;;6149305;22;20031;-68
2023/07/12 08:10:32;;;;;;;10.27;5.15;;;;;;;;;;6148615;22;20078;-68
2023/07/12 08:12:59;;;;;;;12.65;5.50;;;;;;;;;;6149188;23;20009;-68
2023/07/12 08:15:25;;;;;;;11.38;4.80;;;;;;;;;;6149546;23;20009;-67
2023/07/12 08:17:52;;;;;;;12.25;5.07;;;;;;;;;;6148821;23;20017;-67
2023/07/12 08:20:18;;;;;;;9.13;5.10;;;;;;;;;;6149197;22;20053;-68
2023/07/12 08:22:44;;;;;;;8.25;4.80;;;;;;;;;;6148784;22;20033;-67
2023/07/12 08:25:10;;;;;;;15.90;5.07;;;;;;;;;;6148122;22;20036;-66
2023/07/12 08:27:36;;;;;;;10.80;4.85;;;;;;;;;;6149213;22;20013;-68
2023/07/12 08:30:04;;;;;;;11.30;4.97;;;;;;;;;;6149129;23;20012;-67
2023/07/12 08:32:33;;;;;;;13.48;5.60;;;;;;;;;;6147905;23;20465;-67
2023/07/12 08:35:00;;;;;;;9.93;5.03;;;;;;;;;;6149706;22;20009;-67
2023/07/12 08:37:27;;;;;;;11.48;5.07;;;;;;;;;;6148983;23;20044;-67
2023/07/12 08:39:53;;;;;;;9.18;4.88;;;;;;;;;;6148625;23;19998;-67
2023/07/12 08:42:26;;;;;;;13.60;5.72;;;;;;;;;;6148616;22;20013;-66
2023/07/12 08:44:54;;;;;;;15.68;5.88;;;;;;;;;;6149233;22;20044;-68
2023/07/12 08:47:24;;;;;;;9.48;4.90;;;;;;;;;;6148564;22;20006;-67
2023/07/12 08:49:50;;;;;;;14.93;4.93;;;;;;;;;;6149102;22;20031;-67
2023/07/12 08:52:22;;;;;;;10.48;5.10;;;;;;;;;;6148480;23;20033;-69
2023/07/12 08:54:48;;;;;;;14.73;4.90;;;;;;;;;;6148150;23;20021;-68
2023/07/12 08:57:23;;;;;;;11.63;5.20;;;;;;;;;;6122761;22;20130;-67
2023/07/12 08:59:55;;;;;;;8.90;4.68;;;;;;;;;;6148075;23;20045;-68
2023/07/12 09:02:24;;;;;;;8.17;4.80;;;;;;;;;;6148164;22;20037;-68
2023/07/12 09:04:50;;;;;;;6.50;4.63;;;;;;;;;;6145890;22;20092;-67
2023/07/12 09:07:28;;;;;;;11.63;4.65;;;;;;;;;;6148352;23;20123;-67
2023/07/12 09:09:57;;;;;;;7.55;4.90;;;;;;;;;;6149050;23;20017;-67
2023/07/12 09:12:32;;;;;;;9.80;5.07;;;;;;;;;;6150056;23;20031;-67
2023/07/12 09:15:00;;;;;;;13.35;4.53;;;;;;;;;;6148795;22;20485;-67
2023/07/12 09:17:28;;;;;;;10.57;4.43;;;;;;;;;;6148619;23;20009;-67
2023/07/12 09:19:54;;;;;;;6.63;3.88;;;;;;;;;;6149624;22;20017;-68
2023/07/12 09:22:22;;;;;;;9.15;4.30;;;;;;;;;;6149352;22;20406;-67
2023/07/12 09:24:54;;;;;;;7.05;3.70;;;;;;;;;;6149095;22;20147;-67
2023/07/12 09:27:26;;;;;;;9.20;4.87;;;;;;;;;;6149293;22;20009;-67
2023/07/12 09:30:00;;;;;;;7.43;4.35;;;;;;;;;;6149732;22;20010;-68
2023/07/12 09:32:29;;;;;;;9.38;4.78;;;;;;;;;;6149115;22;20067;-67
2023/07/12 09:34:54;;;;;;;7.43;3.95;;;;;;;;;;6123211;22;20121;-67
2023/07/12 09:37:22;;;;;;;10.60;4.68;;;;;;;;;;6148231;22;20041;-68
2023/07/12 09:40:00;;;;;;;8.75;4.00;;;;;;;;;;6147596;22;20055;-68
2023/07/12 09:42:27;;;;;;;9.45;4.93;;;;;;;;;;6148973;23;20021;-68
2023/07/12 09:44:53;;;;;;;9.23;4.25;;;;;;;;;;6150011;23;20046;-67
2023/07/12 09:47:37;;;;;;;7.65;4.05;;;;;;;;;;6149137;23;20391;-67
2023/07/12 09:50:15;;;;;;;8.38;4.40;;;;;;;;;;6149796;22;20021;-68
2023/07/12 09:53:00;;;;;;;9.25;4.43;;;;;;;;;;6147935;22;20021;-66
2023/07/12 09:55:40;;;;;;;9.73;4.28;;;;;;;;;;6150121;22;20010;-67
2023/07/12 09:58:20;;;;;;;7.32;4.10;;;;;;;;;;6150066;22;20049;-68
2023/07/12 10:01:04;;;;;;;8.02;4.20;;;;;;;;;;6150209;23;20290;-68
2023/07/12 10:03:41;;;;;;;8.57;4.05;;;;;;;;;;6150014;22;20253;-68
2023/07/12 10:06:32;;;;;;;10.68;4.28;;;;;;;;;;6149435;23;20070;-68
2023/07/12 10:09:16;;;;;;;6.55;4.00;;;;;;;;;;6149375;23;20009;-68
2023/07/12 10:12:07;;;;;;;7.90;4.18;;;;;;;;;;6148827;23;20009;-68
2023/07/12 10:14:36;;;;;;;8.43;3.95;;;;;;;;;;6149716;22;20013;-67
2023/07/12 10:17:03;;;;;;;6.03;3.97;;;;;;;;;;6149893;23;20164;-67
2023/07/12 10:19:41;;;;;;;5.72;4.25;;;;;;;;;;6147809;23;20451;-68
2023/07/12 10:22:19;;;;;;;7.25;4.10;;;;;;;;;;6149722;22;20025;-67
2023/07/12 10:24:50;;;;;;;6.75;3.85;;;;;;;;;;6150096;22;20010;-69
2023/07/12 10:27:31;;;;;;;9.32;3.67;;;;;;;;;;6148853;22;20020;-69
2023/07/12 10:30:21;;;;;;;8.48;4.13;;;;;;;;;;6149529;23;20013;-68
2023/07/12 10:32:53;;;;;;;9.20;3.58;;;;;;;;;;6140475;23;20045;-68
2023/07/12 10:35:34;;;;;;;8.63;5.30;;;;;;;;;;6147393;22;20020;-68
2023/07/12 10:38:05;;;;;;;7.20;4.07;;;;;;;;;;6148380;22;20067;-68
2023/07/12 10:40:37;;;;;;;6.20;3.80;;;;;;;;;;6150276;22;20010;-68
2023/07/12 10:43:11;;;;;;;8.32;3.88;;;;;;;;;;6149967;22;20014;-68
2023/07/12 10:45:38;;;;;;;7.60;4.30;;;;;;;;;;6148543;23;20016;-68
2023/07/12 10:48:05;;;;;;;9.27;4.20;;;;;;;;;;6148904;23;20100;-68
2023/07/12 10:50:43;;;;;;;9.52;4.57;;;;;;;;;;6150475;22;20370;-68
2023/07/12 10:53:15;;;;;;;9.55;4.38;;;;;;;;;;6148284;23;20005;-68
2023/07/12 10:55:49;;;;;;;7.00;4.43;;;;;;;;;;6147258;23;20150;-69
2023/07/12 10:58:20;;;;;;;8.20;4.22;;;;;;;;;;6148756;22;20336;-67
2023/07/12 11:00:53;;;;;;;14.95;5.53;;;;;;;;;;6148190;22;20062;-68
2023/07/12 11:03:40;;;;;;;8.00;4.57;;;;;;;;;;6123865;23;20020;-67
2023/07/12 11:06:25;;;;;;;8.70;4.35;;;;;;;;;;6149249;23;20328;-67
2023/07/12 11:09:02;;;;;;;8.45;4.47;;;;;;;;;;6149668;22;20458;-67
2023/07/12 11:11:42;;;;;;;5.70;4.45;;;;;;;;;;6148816;23;20010;-67
2023/07/12 11:14:11;;;;;;;7.65;4.65;;;;;;;;;;6147584;23;20063;-67
2023/07/12 11:16:46;;;;;;;10.82;4.78;;;;;;;;;;6149394;23;20513;-67
2023/07/12 11:19:36;;;;;;;8.82;4.28;;;;;;;;;;6150164;23;20013;-67
2023/07/12 11:22:11;;;;;;;10.32;4.80;;;;;;;;;;6150666;22;20009;-67
2023/07/12 11:24:39;;;;;;;7.65;4.82;;;;;;;;;;6147838;23;20021;-67
2023/07/12 11:27:23;;;;;;;8.90;5.35;;;;;;;;;;6149808;23;20004;-67
2023/07/12 11:29:54;;;;;;;9.38;5.40;;;;;;;;;;6148002;22;20010;-66
2023/07/12 11:32:33;;;;;;;9.90;5.22;;;;;;;;;;6148547;22;20013;-66
2023/07/12 11:35:17;;;;;;;13.25;5.32;;;;;;;;;;6150717;22;20443;-68
2023/07/12 11:37:49;;;;;;;7.55;4.68;;;;;;;;;;6124964;23;20021;-68
2023/07/12 11:40:20;;;;;;;17.50;5.50;;;;;;;;;;6149547;23;20024;-67
2023/07/12 11:42:47;;;;;;;8.73;5.33;;;;;;;;;;6150157;23;20043;-67
2023/07/12 11:45:15;;;;;;;9.05;5.30;;;;;;;;;;6149995;23;20013;-66
2023/07/12 11:47:42;;;;;;;7.38;5.30;;;;;;;;;;6150086;23;20001;-67
2023/07/12 11:50:18;;;;;;;9.35;5.55;;;;;;;;;;6150096;23;19997;-67
2023/07/12 11:52:44;;;;;;;11.57;5.57;;;;;;;;;;6150266;23;20006;-67
2023/07/12 11:55:20;;;;;;;10.52;6.60;;;;;;;;;;6150077;22;19998;-67
2023/07/12 11:57:48;;;;;;;10.02;4.95;;;;;;;;;;6150422;22;20092;-67
2023/07/12 12:00:25;;;;;;;6.18;4.55;;;;;;;;;;6149943;23;20066;-65
2023/07/12 12:02:56;;;;;;;6.93;4.90;;;;;;;;;;6148488;22;20025;-67
2023/07/12 12:05:28;;;;;;;6.75;5.20;;;;;;;;;;6149832;22;20014;-68
2023/07/12 12:07:55;;;;;;;9.13;5.43;;;;;;;;;;6147222;22;20455;-67
2023/07/12 12:10:26;;;;;;;7.43;5.10;;;;;;;;;;6149994;22;20005;-68
2023/07/12 12:12:53;;;;;;;10.52;5.28;;;;;;;;;;6149886;22;20012;-68
2023/07/12 12:15:22;;;;;;;6.90;4.95;;;;;;;;;;6149882;23;20080;-67
2023/07/12 12:17:50;;;;;;;8.68;5.20;;;;;;;;;;6149976;23;20096;-67
2023/07/12 12:20:21;;;;;;;6.75;4.53;;;;;;;;;;6149915;23;19997;-67
2023/07/12 12:23:26;;;;;;;11.20;4.80;;;;;;;;;;6149941;22;20096;-68
2023/07/12 12:25:53;;;;;;;10.00;5.63;;;;;;;;;;6149694;23;20325;-68
2023/07/12 12:28:27;;;;;;;8.13;4.93;;;;;;;;;;6123685;22;19994;-68
2023/07/12 12:31:14;;;;;;;7.38;4.95;;;;;;;;;;6149790;22;20007;-68
2023/07/12 12:33:52;;;;;;;5.75;4.28;;;;;;;;;;6150176;22;20033;-66
2023/07/12 12:36:26;;;;;;;8.02;4.45;;;;;;;;;;6149406;22;20009;-68
2023/07/12 12:39:18;;;;;;;5.00;3.85;;;;;;;;;;6149323;23;20009;-69
2023/07/12 12:41:51;;;;;;;6.10;4.75;;;;;;;;;;6115730;23;20086;-67
2023/07/12 12:44:18;;;;;;;7.53;4.72;;;;;;;;;;6149604;22;20016;-68
2023/07/12 12:46:48;;;;;;;9.80;5.30;;;;;;;;;;6149667;22;20025;-68
2023/07/12 12:49:24;;;;;;;6.28;4.75;;;;;;;;;;6149247;23;20441;-68
2023/07/12 12:51:52;;;;;;;7.18;5.00;;;;;;;;;;6149207;23;20025;-68
2023/07/12 12:54:18;;;;;;;7.30;4.78;;;;;;;;;;6146557;23;20451;-68
2023/07/12 12:56:45;;;;;;;8.80;4.70;;;;;;;;;;6148971;22;20068;-68
2023/07/12 12:59:14;;;;;;;8.13;4.70;;;;;;;;;;6149371;22;20048;-68
2023/07/12 13:01:40;;;;;;;9.93;4.75;;;;;;;;;;6149261;23;20017;-67
2023/07/12 13:04:06;;;;;;;6.95;4.88;;;;;;;;;;6148439;22;20337;-67
2023/07/12 13:06:32;;;;;;;14.85;5.72;;;;;;;;;;6148562;22;20019;-67
2023/07/12 13:08:58;;;;;;;7.90;4.80;;;;;;;;;;6148889;22;20431;-67
2023/07/12 13:11:23;;;;;;;6.65;5.32;;;;;;;;;;6148577;22;20051;-68
2023/07/12 13:13:49;;;;;;;10.80;4.53;;;;;;;;;;6148339;23;20002;-67
2023/07/12 13:16:16;;;;;;;7.43;4.60;;;;;;;;;;6146936;23;20010;-67
2023/07/12 13:18:43;;;;;;;8.50;5.18;;;;;;;;;;6147741;22;20009;-68
2023/07/12 13:21:19;;;;;;;7.65;4.95;;;;;;;;;;6147252;22;20013;-67
2023/07/12 13:23:45;;;;;;;6.10;4.57;;;;;;;;;;6148038;23;20018;-67
2023/07/12 13:26:16;;;;;;;7.93;4.70;;;;;;;;;;6148324;22;20081;-67
2023/07/12 13:28:42;;;;;;;7.53;5.03;;;;;;;;;;6148778;23;20036;-68
2023/07/12 13:31:12;;;;;;;10.02;5.28;;;;;;;;;;6148797;22;20293;-66
2023/07/12 13:33:39;;;;;;;8.10;5.10;;;;;;;;;;6148834;22;20059;-67
2023/07/12 13:36:05;;;;;;;7.20;4.75;;;;;;;;;;6149521;22;19997;-66
2023/07/12 13:38:32;;;;;;;15.07;6.55;;;;;;;;;;6148933;22;20006;-67
2023/07/12 13:40:58;;;;;;;6.68;5.82;;;;;;;;;;6149026;22;20040;-66
2023/07/12 13:43:24;;;;;;;7.82;4.97;;;;;;;;;;6148938;22;20009;-68
2023/07/12 13:45:50;;;;;;;6.18;4.80;;;;;;;;;;6148620;22;20054;-67
2023/07/12 13:48:18;;;;;;;8.18;5.85;;;;;;;;;;6149156;22;20390;-68
2023/07/12 13:50:44;;;;;;;7.38;4.80;;;;;;;;;;6148892;23;20009;-67
2023/07/12 13:53:10;;;;;;;8.45;4.60;;;;;;;;;;6149321;22;20020;-68
2023/07/12 13:55:36;;;;;;;6.95;5.13;;;;;;;;;;6150148;22;20435;-67
2023/07/12 13:58:02;;;;;;;8.52;5.47;;;;;;;;;;6148645;23;20094;-67
2023/07/12 14:00:28;;;;;;;8.32;5.75;;;;;;;;;;6150245;23;20435;-68
2023/07/12 14:02:55;;;;;;;10.25;5.53;;;;;;;;;;6149900;23;20014;-67
2023/07/12 14:05:24;;;;;;;8.50;5.53;;;;;;;;;;6150663;22;20084;-67
2023/07/12 14:07:50;;;;;;;10.55;5.72;;;;;;;;;;6150017;23;20063;-67
2023/07/12 14:10:20;;;;;;;10.15;5.50;;;;;;;;;;6150217;22;20014;-68
2023/07/12 14:12:47;;;;;;;10.20;5.43;;;;;;;;;;6150222;23;20085;-67
2023/07/12 14:15:19;;;;;;;7.55;5.05;;;;;;;;;;6150147;23;20473;-67
2023/07/12 14:17:46;;;;;;;10.07;5.15;;;;;;;;;;6150627;23;20010;-66
2023/07/12 14:20:12;;;;;;;7.20;5.47;;;;;;;;;;6150147;23;20340;-67
2023/07/12 14:22:38;;;;;;;8.02;5.20;;;;;;;;;;6149696;23;20016;-66
2023/07/12 14:25:06;;;;;;;12.98;5.30;;;;;;;;;;6150273;23;20013;-67
2023/07/12 14:27:34;;;;;;;8.32;5.20;;;;;;;;;;6150459;22;20076;-68
2023/07/12 14:30:04;;;;;;;8.38;5.38;;;;;;;;;;6150730;23;20029;-67
2023/07/12 14:32:36;;;;;;;7.57;5.28;;;;;;;;;;6149779;23;20014;-67
2023/07/12 14:35:04;;;;;;;9.27;5.40;;;;;;;;;;6150032;22;20063;-68
2023/07/12 14:37:31;;;;;;;11.98;5.63;;;;;;;;;;6124018;22;20001;-67
2023/07/12 14:39:57;;;;;;;7.65;5.20;;;;;;;;;;6150053;23;20009;-67
2023/07/12 14:42:26;;;;;;;11.25;5.25;;;;;;;;;;6149929;23;20054;-67
2023/07/12 14:44:53;;;;;;;7.18;5.18;;;;;;;;;;6149654;23;20014;-67
2023/07/12 14:47:19;;;;;;;11.48;5.80;;;;;;;;;;6150369;23;20001;-67
2023/07/12 14:49:45;;;;;;;9.23;6.03;;;;;;;;;;6150035;22;20431;-67
2023/07/12 14:52:24;;;;;;;8.88;5.60;;;;;;;;;;6149682;22;20005;-66
2023/07/12 14:54:51;;;;;;;11.18;5.38;;;;;;;;;;6150126;22;20013;-68
2023/07/12 14:57:18;;;;;;;12.63;5.82;;;;;;;;;;6150009;23;20089;-67
2023/07/12 14:59:45;;;;;;;9.70;5.60;;;;;;;;;;6149914;22;20020;-67
2023/07/12 15:02:29;;;;;;;8.70;5.10;;;;;;;;;;6149187;23;20010;-66
2023/07/12 15:04:58;;;;;;;7.88;5.32;;;;;;;;;;6148984;22;20029;-66
2023/07/12 15:07:25;;;;;;;7.22;5.10;;;;;;;;;;6150189;22;20002;-67
2023/07/12 15:09:54;;;;;;;7.25;4.97;;;;;;;;;;6149794;22;20183;-67
2023/07/12 15:12:41;;;;;;;11.57;5.38;;;;;;;;;;6148458;23;20009;-66
2023/07/12 15:15:15;;;;;;;8.40;5.20;;;;;;;;;;6149599;22;20017;-67
2023/07/12 15:17:42;;;;;;;8.65;5.53;;;;;;;;;;6149333;23;20013;-67
2023/07/12 15:20:10;;;;;;;6.78;5.63;;;;;;;;;;6149797;22;20017;-67
2023/07/12 15:22:38;;;;;;;8.60;5.18;;;;;;;;;;6149277;23;20020;-66
2023/07/12 15:25:20;;;;;;;8.32;4.57;;;;;;;;;;6149671;23;20002;-67
2023/07/12 15:27:49;;;;;;;8.70;5.50;;;;;;;;;;6149409;22;20013;-66
2023/07/12 15:30:21;;;;;;;7.30;5.78;;;;;;;;;;6148655;23;20085;-67
2023/07/12 15:32:48;;;;;;;10.38;5.30;;;;;;;;;;6148866;23;20010;-67
2023/07/12 15:35:17;;;;;;;11.00;5.55;;;;;;;;;;6149366;23;20454;-67
2023/07/12 15:37:43;;;;;;;10.95;5.88;;;;;;;;;;6149012;22;20006;-67
2023/07/12 15:40:10;;;;;;;10.35;5.60;;;;;;;;;;6123608;23;20008;-67
2023/07/12 15:42:36;;;;;;;9.23;5.32;;;;;;;;;;6148458;23;20030;-67
2023/07/12 15:45:01;;;;;;;7.85;5.80;;;;;;;;;;6149372;22;20023;-67
2023/07/12 15:47:27;;;;;;;9.77;5.75;;;;;;;;;;6149460;22;20014;-67
2023/07/12 15:49:53;;;;;;;10.90;5.82;;;;;;;;;;6150128;22;20376;-66
2023/07/12 15:52:26;;;;;;;10.98;6.07;;;;;;;;;;6148756;22;20326;-67
2023/07/12 15:54:53;;;;;;;10.25;6.40;;;;;;;;;;6148287;23;20369;-67
2023/07/12 15:57:18;;;;;;;12.00;6.10;;;;;;;;;;6148669;23;20005;-67
2023/07/12 15:59:46;;;;;;;8.38;5.95;;;;;;;;;;6149193;22;20014;-67
2023/07/12 16:02:25;;;;;;;8.98;5.68;;;;;;;;;;6149665;22;20041;-67
2023/07/12 16:04:51;;;;;;;8.65;6.05;;;;;;;;;;6148844;22;20084;-66
2023/07/12 16:07:17;;;;;;;7.70;4.78;;;;;;;;;;6149068;23;20051;-67
2023/07/12 16:09:43;;;;;;;9.93;6.05;;;;;;;;;;6122106;23;20506;-66
2023/07/12 16:12:17;;;;;;;9.02;6.45;;;;;;;;;;6148372;23;20005;-67
2023/07/12 16:14:43;;;;;;;11.27;6.10;;;;;;;;;;6148873;23;20006;-66
2023/07/12 16:17:21;;;;;;;10.95;5.80;;;;;;;;;;6147036;22;20455;-67
2023/07/12 16:19:47;;;;;;;11.20;5.78;;;;;;;;;;6147979;23;20022;-66
2023/07/12 16:22:19;;;;;;;10.15;6.05;;;;;;;;;;6149628;23;20446;-67
2023/07/12 16:24:45;;;;;;;9.53;5.70;;;;;;;;;;6149864;23;20055;-66
2023/07/12 16:27:13;;;;;;;11.68;5.68;;;;;;;;;;6149432;23;20009;-66
2023/07/12 16:29:39;;;;;;;9.07;5.80;;;;;;;;;;6150676;23;20010;-66
2023/07/12 16:32:11;;;;;;;9.18;6.00;;;;;;;;;;6148662;22;20012;-67
2023/07/12 16:34:38;;;;;;;8.77;6.13;;;;;;;;;;6148779;22;20459;-66
2023/07/12 16:37:19;;;;;;;8.73;5.70;;;;;;;;;;6149063;22;20006;-67
2023/07/12 16:39:46;;;;;;;8.40;5.70;;;;;;;;;;6148902;22;20025;-66
2023/07/12 16:42:24;;;;;;;12.85;6.15;;;;;;;;;;6147671;23;20048;-67
2023/07/12 16:44:50;;;;;;;8.30;6.15;;;;;;;;;;6149026;22;20443;-66
2023/07/12 16:47:18;;;;;;;7.75;5.60;;;;;;;;;;6149551;22;20015;-67
2023/07/12 16:49:45;;;;;;;10.85;5.97;;;;;;;;;;6148536;22;20401;-67
2023/07/12 16:52:20;;;;;;;14.23;6.63;;;;;;;;;;6149633;23;20423;-68
2023/07/12 16:54:46;;;;;;;8.75;5.93;;;;;;;;;;6147479;23;20009;-67
2023/07/12 16:57:22;;;;;;;13.77;6.93;;;;;;;;;;6149131;23;20025;-67
2023/07/12 16:59:49;;;;;;;10.27;6.13;;;;;;;;;;6149216;22;20465;-67
2023/07/12 17:02:25;;;;;;;13.10;7.32;;;;;;;;;;6147811;23;20008;-67
2023/07/12 17:04:50;;;;;;;11.38;6.07;;;;;;;;;;6149182;22;20013;-66
2023/07/12 17:07:17;;;;;;;10.55;6.18;;;;;;;;;;6149094;23;20032;-66
2023/07/12 17:09:43;;;;;;;9.57;6.22;;;;;;;;;;6147247;23;20429;-66
2023/07/12 17:12:34;;;;;;;10.27;6.32;;;;;;;;;;6148500;23;20283;-66
2023/07/12 17:15:00;;;;;;;11.80;6.53;;;;;;;;;;6149293;23;20017;-66
2023/07/12 17:17:26;;;;;;;13.20;6.40;;;;;;;;;;6148692;22;20012;-66
2023/07/12 17:19:53;;;;;;;12.65;6.50;;;;;;;;;;6149058;22;20089;-66
2023/07/12 17:22:20;;;;;;;12.60;6.10;;;;;;;;;;6148990;23;20002;-66
2023/07/12 17:24:47;;;;;;;10.50;6.57;;;;;;;;;;6122148;23;20041;-68
2023/07/12 17:27:18;;;;;;;14.57;6.95;;;;;;;;;;6149104;22;20024;-67
2023/07/12 17:29:46;;;;;;;11.85;5.75;;;;;;;;;;6150026;23;20377;-66
2023/07/12 17:32:16;;;;;;;15.90;7.30;;;;;;;;;;6150005;23;20288;-66
2023/07/12 17:34:42;;;;;;;16.35;7.07;;;;;;;;;;6149630;22;20014;-66
2023/07/12 17:37:18;;;;;;;14.85;6.85;;;;;;;;;;6148053;23;20002;-66
2023/07/12 17:39:44;;;;;;;12.02;7.10;;;;;;;;;;6147897;22;20017;-67
2023/07/12 17:42:15;;;;;;;11.65;7.57;;;;;;;;;;6149725;22;20009;-67
2023/07/12 17:44:46;;;;;;;19.23;7.85;;;;;;;;;;6149175;23;20469;-67
2023/07/12 17:47:17;;;;;;;14.73;8.45;;;;;;;;;;6149381;22;20053;-66
2023/07/12 17:49:45;;;;;;;16.65;8.35;;;;;;;;;;6149016;23;20009;-66
2023/07/12 17:52:13;;;;;;;11.65;8.15;;;;;;;;;;6150225;22;20001;-67
2023/07/12 17:54:38;;;;;;;11.55;7.43;;;;;;;;;;6149686;23;20016;-66
2023/07/12 17:57:04;;;;;;;13.15;9.00;;;;;;;;;;6149474;23;20336;-66
2023/07/12 17:59:30;;;;;;;20.45;8.38;;;;;;;;;;6149256;23;20010;-67
2023/07/12 18:01:56;;;;;;;15.20;8.65;;;;;;;;;;6149599;23;20393;-66
2023/07/12 18:04:22;;;;;;;17.55;8.45;;;;;;;;;;6149160;22;20479;-66
2023/07/12 18:06:48;;;;;;;16.98;8.77;;;;;;;;;;6149448;22;20010;-65
2023/07/12 18:09:15;;;;;;;13.00;9.13;;;;;;;;;;6149509;22;20009;-66
2023/07/12 18:11:45;;;;;;;14.68;9.15;;;;;;;;;;6149828;22;20088;-66
2023/07/12 18:14:21;;;;;;;14.35;8.45;;;;;;;;;;6149379;22;20139;-66
2023/07/12 18:16:48;;;;;;;18.30;9.25;;;;;;;;;;6148982;23;20078;-66
2023/07/12 18:19:14;;;;;;;21.05;10.52;;;;;;;;;;6148215;23;20450;-66
2023/07/12 18:21:40;;;;;;;17.38;10.10;;;;;;;;;;6150584;23;20338;-66
2023/07/12 18:24:18;;;;;;;20.95;9.25;;;;;;;;;;6149723;23;20005;-66
2023/07/12 18:26:43;;;;;;;12.30;8.10;;;;;;;;;;6150355;23;20055;-67
2023/07/12 18:29:09;;;;;;;20.80;7.47;;;;;;;;;;6149749;22;20076;-66
2023/07/12 18:31:40;;;;;;;21.42;8.80;;;;;;;;;;6150062;22;20014;-66
2023/07/12 18:34:10;;;;;;;19.70;10.75;;;;;;;;;;6149956;22;20351;-66